createdAt,value
2023-02-09T00:06:30.231Z,16.73
2023-02-09T00:10:47.702Z,16.05
2023-02-09T00:15:06.292Z,16.40
2023-02-09T00:19:23.484Z,16.27
2023-02-09T00:27:57.852Z,16.03
2023-02-09T00:36:33.027Z,16.73
2023-02-09T00:40:50.256Z,16.13
2023-02-09T00:49:24.840Z,19.13
2023-02-09T00:53:42.043Z,22.00
2023-02-09T01:02:16.214Z,17.35
2023-02-09T01:10:50.538Z,18.13
2023-02-09T01:19:26.790Z,18.80
2023-02-09T01:23:44.689Z,18.77
2023-02-09T01:28:01.866Z,15.25
2023-02-09T01:36:36.208Z,14.48
2023-02-09T01:40:53.295Z,14.25
2023-02-09T01:49:51.880Z,14.82
2023-02-09T01:54:13.434Z,14.85
2023-02-09T01:58:31.874Z,14.45
2023-02-09T02:03:00.876Z,16.75
2023-02-09T02:07:28.044Z,15.55
2023-02-09T02:11:47.715Z,14.98
2023-02-09T02:16:45.558Z,15.32
2023-02-09T02:21:24.092Z,16.83
2023-02-09T02:26:07.563Z,16.80
2023-02-09T02:30:36.514Z,15.25
2023-02-09T02:35:06.273Z,17.13
2023-02-09T02:39:49.645Z,14.90
2023-02-09T02:44:11.261Z,15.57
2023-02-09T02:48:42.360Z,14.98
2023-02-09T02:53:03.189Z,14.63
2023-02-09T02:57:26.609Z,15.63
2023-02-09T03:01:51.843Z,15.35
2023-02-09T03:06:10.743Z,15.18
2023-02-09T03:10:36.805Z,17.15
2023-02-09T03:15:28.918Z,18.33
2023-02-09T03:20:05.461Z,17.33
2023-02-09T03:24:48.327Z,17.42
2023-02-09T03:29:08.252Z,17.92
2023-02-09T03:33:29.341Z,17.42
2023-02-09T03:37:46.430Z,16.33
2023-02-09T03:46:20.688Z,15.57
2023-02-09T03:50:38.135Z,16.73
2023-02-09T03:54:55.290Z,16.55
2023-02-09T04:03:29.519Z,14.73
2023-02-09T04:12:04.349Z,16.60
2023-02-09T04:16:21.513Z,17.60
2023-02-09T04:20:38.675Z,17.83
2023-02-09T04:24:55.787Z,16.38
2023-02-09T04:29:13.951Z,18.13
2023-02-09T04:33:31.188Z,16.08
2023-02-09T04:37:48.286Z,18.27
2023-02-09T04:42:05.441Z,16.70
2023-02-09T04:46:22.580Z,17.73
2023-02-09T04:50:40.205Z,19.40
2023-02-09T04:54:57.302Z,21.08
2023-02-09T04:59:33.200Z,17.88
2023-02-09T05:03:50.514Z,18.90
2023-02-09T05:08:08.384Z,18.10
2023-02-09T05:12:25.600Z,19.33
2023-02-09T05:16:42.766Z,18.48
2023-02-09T05:20:59.984Z,21.48
2023-02-09T05:25:17.339Z,18.98
2023-02-09T05:29:34.529Z,19.48
2023-02-09T05:33:51.697Z,19.35
2023-02-09T05:38:08.815Z,18.77
2023-02-09T05:42:27.491Z,18.60
2023-02-09T05:46:44.564Z,17.00
2023-02-09T05:55:18.733Z,19.73
2023-02-09T05:59:35.846Z,19.73
2023-02-09T06:08:09.944Z,18.20
2023-02-09T06:12:27.143Z,17.08
2023-02-09T06:16:44.860Z,17.45
2023-02-09T06:21:02.020Z,15.70
2023-02-09T06:25:19.136Z,18.73
2023-02-09T06:29:36.255Z,18.67
2023-02-09T06:33:53.483Z,17.90
2023-02-09T06:38:10.784Z,31.50
2023-02-09T06:42:43.740Z,21.75
2023-02-09T06:47:01.000Z,19.48
2023-02-09T06:51:18.337Z,18.98
2023-02-09T06:55:35.691Z,20.30
2023-02-09T06:59:52.802Z,18.92
2023-02-09T07:04:09.922Z,17.90
2023-02-09T07:08:27.034Z,19.00
2023-02-09T07:12:44.701Z,20.25
2023-02-09T07:17:01.836Z,23.00
2023-02-09T07:21:21.340Z,21.30
2023-02-09T07:25:38.454Z,33.08
2023-02-09T07:34:12.634Z,25.17
2023-02-09T07:42:46.779Z,21.95
2023-02-09T07:47:03.955Z,22.88
2023-02-09T07:51:25.458Z,21.77
2023-02-09T07:55:42.662Z,22.75
2023-02-09T07:59:59.846Z,22.45
2023-02-09T08:04:16.956Z,21.25
2023-02-09T08:08:34.053Z,22.88
2023-02-09T08:13:02.470Z,23.13
2023-02-09T08:17:20.749Z,22.13
2023-02-09T08:21:41.341Z,28.05
2023-02-09T08:26:02.066Z,24.02
2023-02-09T08:30:19.763Z,28.50
2023-02-09T08:34:36.888Z,24.42
2023-02-09T08:38:54.006Z,24.25
2023-02-09T08:43:12.388Z,22.52
2023-02-09T08:47:29.493Z,23.55
2023-02-09T08:51:46.646Z,22.33
2023-02-09T08:56:04.004Z,20.73
2023-02-09T09:00:21.445Z,22.10
2023-02-09T09:04:38.539Z,19.80
2023-02-09T09:08:55.643Z,20.00
2023-02-09T09:13:12.740Z,19.30
2023-02-09T09:17:30.139Z,19.60
2023-02-09T09:21:47.307Z,18.38
2023-02-09T09:26:04.740Z,18.03
2023-02-09T09:30:21.920Z,19.20
2023-02-09T09:34:39.755Z,19.60
2023-02-09T09:38:56.870Z,18.42
2023-02-09T09:43:25.672Z,17.98
2023-02-09T09:47:44.407Z,17.27
2023-02-09T09:52:13.378Z,17.52
2023-02-09T09:56:32.665Z,16.52
2023-02-09T10:00:51.313Z,16.02
2023-02-09T10:05:21.493Z,16.50
2023-02-09T10:09:44.447Z,14.68
2023-02-09T10:14:01.542Z,15.35
2023-02-09T10:18:25.202Z,13.90
2023-02-09T10:22:45.802Z,15.50
2023-02-09T10:27:25.618Z,14.60
2023-02-09T10:31:46.583Z,15.60
2023-02-09T10:36:06.747Z,13.98
2023-02-09T10:40:38.488Z,13.00
2023-02-09T10:44:58.291Z,12.70
2023-02-09T10:49:28.960Z,13.02
2023-02-09T10:54:07.614Z,25.58
2023-02-09T10:58:31.983Z,14.15
2023-02-09T11:02:55.247Z,14.80
2023-02-09T11:07:17.883Z,13.38
2023-02-09T11:11:40.111Z,15.23
2023-02-09T11:16:08.515Z,15.38
2023-02-09T11:20:35.494Z,17.80
2023-02-09T11:25:04.755Z,17.80
2023-02-09T11:29:35.160Z,15.68
2023-02-09T11:34:26.320Z,15.25
2023-02-09T11:38:57.921Z,16.77
2023-02-09T11:43:35.622Z,14.90
2023-02-09T11:48:26.583Z,14.32
2023-02-09T11:52:54.754Z,10.88
2023-02-09T11:57:30.332Z,8.30
2023-02-09T12:01:53.915Z,7.68
2023-02-09T12:06:11.669Z,8.48
2023-02-09T12:10:44.096Z,7.20
2023-02-09T12:15:26.274Z,7.55
2023-02-09T12:19:56.358Z,7.95
2023-02-09T12:24:33.107Z,7.35
2023-02-09T12:29:22.265Z,7.93
2023-02-09T12:34:00.557Z,7.93
2023-02-09T12:38:19.979Z,8.13
2023-02-09T12:42:39.466Z,8.65
2023-02-09T12:46:58.041Z,7.97
2023-02-09T12:56:11.546Z,7.97
2023-02-09T13:00:31.794Z,8.25
2023-02-09T13:05:11.561Z,7.72
2023-02-09T13:09:34.835Z,8.48
2023-02-09T13:14:05.871Z,7.22
2023-02-09T13:18:33.699Z,7.72
2023-02-09T13:23:18.719Z,7.45
2023-02-09T13:27:45.941Z,7.90
2023-02-09T13:32:05.830Z,9.05
2023-02-09T13:36:47.322Z,11.48
2023-02-09T13:41:06.243Z,10.55
2023-02-09T13:45:24.082Z,8.63
2023-02-09T13:49:41.736Z,8.20
2023-02-09T13:54:01.720Z,9.20
2023-02-09T13:58:36.537Z,10.07
2023-02-09T14:03:00.525Z,12.55
2023-02-09T14:07:18.997Z,11.07
2023-02-09T14:11:45.127Z,10.32
2023-02-09T14:16:09.654Z,9.48
2023-02-09T14:20:26.805Z,10.00
2023-02-09T14:24:44.076Z,8.68
2023-02-09T14:29:06.977Z,8.93
2023-02-09T14:33:24.957Z,8.57
2023-02-09T14:37:42.880Z,8.10
2023-02-09T14:42:07.722Z,8.98
2023-02-09T14:46:24.946Z,9.50
2023-02-09T14:50:42.129Z,9.38
2023-02-09T14:55:04.721Z,9.05
2023-02-09T14:59:22.985Z,9.07
2023-02-09T15:03:40.078Z,8.90
2023-02-09T15:08:05.690Z,8.85
2023-02-09T15:12:27.457Z,8.63
2023-02-09T15:16:44.574Z,9.88
2023-02-09T15:21:01.723Z,8.82
2023-02-09T15:25:18.825Z,9.05
2023-02-09T15:29:36.189Z,9.00
2023-02-09T15:33:53.525Z,8.70
2023-02-09T15:38:12.544Z,9.32
2023-02-09T15:42:48.623Z,11.13
2023-02-09T15:47:24.567Z,10.63
2023-02-09T15:51:42.233Z,10.02
2023-02-09T15:55:59.659Z,9.48
2023-02-09T16:00:18.652Z,9.93
2023-02-09T16:04:35.754Z,9.80
2023-02-09T16:08:53.935Z,10.48
2023-02-09T16:13:11.991Z,9.77
2023-02-09T16:17:29.132Z,11.45
2023-02-09T16:21:56.442Z,25.98
2023-02-09T16:26:13.605Z,43.63
2023-02-09T16:30:37.621Z,49.93
2023-02-09T16:34:57.755Z,34.33
2023-02-09T16:39:21.056Z,22.63
2023-02-09T16:43:38.164Z,19.33
2023-02-09T16:47:59.176Z,20.03
2023-02-09T16:52:20.677Z,16.27
2023-02-09T16:56:52.554Z,15.05
2023-02-09T17:01:18.572Z,17.65
2023-02-09T17:05:37.139Z,15.52
2023-02-09T17:09:55.938Z,16.15
2023-02-09T17:14:13.042Z,15.32
2023-02-09T17:18:42.384Z,16.50
2023-02-09T17:22:59.536Z,14.13
2023-02-09T17:27:16.630Z,15.43
2023-02-09T17:31:50.801Z,15.55
2023-02-09T17:36:25.616Z,14.50
2023-02-09T17:40:43.969Z,14.00
2023-02-09T17:45:01.761Z,13.50
2023-02-09T17:49:18.956Z,16.67
2023-02-09T17:53:36.040Z,16.38
2023-02-09T17:57:58.055Z,15.57
2023-02-09T18:02:19.675Z,15.68
2023-02-09T18:06:39.410Z,15.77
2023-02-09T18:10:58.562Z,15.43
2023-02-09T18:15:24.511Z,17.15
2023-02-09T18:19:41.731Z,17.75
2023-02-09T18:23:58.815Z,15.43
2023-02-09T18:28:16.905Z,18.10
2023-02-09T18:32:34.063Z,15.10
2023-02-09T18:36:51.334Z,14.47
2023-02-09T18:41:14.568Z,14.97
2023-02-09T18:45:32.146Z,18.08
2023-02-09T18:49:49.210Z,14.20
2023-02-09T18:54:06.364Z,13.95
2023-02-09T18:58:23.516Z,14.87
2023-02-09T19:02:43.116Z,13.80
2023-02-09T19:07:01.894Z,14.00
2023-02-09T19:11:21.399Z,13.43
2023-02-09T19:15:39.870Z,12.95
2023-02-09T19:19:58.153Z,14.13
2023-02-09T19:24:15.277Z,15.55
2023-02-09T19:28:32.815Z,14.17
2023-02-09T19:32:50.273Z,19.97
2023-02-09T19:37:08.724Z,16.20
2023-02-09T19:41:26.874Z,16.08
2023-02-09T19:45:44.043Z,24.05
2023-02-09T19:50:01.268Z,15.17
2023-02-09T19:54:18.718Z,15.10
2023-02-09T19:58:37.297Z,15.38
2023-02-09T20:02:54.539Z,16.00
2023-02-09T20:07:12.523Z,15.75
2023-02-09T20:15:46.838Z,15.18
2023-02-09T20:20:04.864Z,15.48
2023-02-09T20:28:39.889Z,17.00
2023-02-09T20:32:57.023Z,19.13
2023-02-09T20:37:14.141Z,15.97
2023-02-09T20:41:31.319Z,16.47
2023-02-09T20:46:07.345Z,16.07
2023-02-09T20:50:24.587Z,16.70
2023-02-09T20:54:41.723Z,15.97
2023-02-09T20:58:59.018Z,15.33
2023-02-09T21:03:16.145Z,18.60
2023-02-09T21:07:34.235Z,15.63
2023-02-09T21:16:09.778Z,16.67
2023-02-09T21:20:28.618Z,17.23
2023-02-09T21:24:45.817Z,18.08
2023-02-09T21:29:02.930Z,17.80
2023-02-09T21:33:20.045Z,16.50
2023-02-09T21:37:42.697Z,16.77
2023-02-09T21:42:18.530Z,17.02
2023-02-09T21:46:36.187Z,17.38
2023-02-09T21:50:53.370Z,16.83
2023-02-09T21:55:10.572Z,17.50
2023-02-09T21:59:28.513Z,17.73
2023-02-09T22:03:49.615Z,16.38
2023-02-09T22:08:06.902Z,16.42
2023-02-09T22:12:23.983Z,16.33
2023-02-09T22:16:41.287Z,16.10
2023-02-09T22:20:58.452Z,15.98
2023-02-09T22:25:15.594Z,15.77
2023-02-09T22:29:35.638Z,17.03
2023-02-09T22:33:54.056Z,16.90
2023-02-09T22:38:11.184Z,16.48
2023-02-09T22:42:28.281Z,15.83
2023-02-09T22:46:46.440Z,15.83
2023-02-09T22:51:03.677Z,16.33
2023-02-09T22:55:20.775Z,16.63
2023-02-09T22:59:37.938Z,15.43
2023-02-09T23:03:55.353Z,16.63
2023-02-09T23:08:12.496Z,16.35
2023-02-09T23:12:29.644Z,16.30
2023-02-09T23:16:47.209Z,16.50
2023-02-09T23:21:06.328Z,16.17
2023-02-09T23:25:24.376Z,15.73
2023-02-09T23:29:41.503Z,17.45
2023-02-09T23:33:58.676Z,17.57
2023-02-09T23:38:17.852Z,17.13
2023-02-09T23:42:34.941Z,17.55
2023-02-09T23:46:52.065Z,16.70
2023-02-09T23:51:12.762Z,16.70
2023-02-09T23:55:29.914Z,17.83
2023-02-09T23:59:47.109Z,18.33
